Terminal Aerodrome Forecast
Issued by NWS

Home | Current Version | Previous Version | Text Only | Print | Product List | Glossary On
Versions: 1 2 3 4 5 6 7 8 9 10 11 12 13 14 15 16 17 18 19 20 21 22 23 24 25 26 27 28
000
FTUS44 KOUN 021739
TAFPNC
TAF
KPNC 021739Z 0218/0318 06008KT P6SM BKN200
     FM022000 06010KT P6SM VCTS FEW060CB BKN200
     FM022200 04012KT P6SM BKN080 PROB30 0304/0310 4SM -TSRA BR
      BKN040CB=

USA.gov is the U.S. government's official web portal to all federal, state and local government web resources and services.